Zurich, Kansas
Current Conditions -  °F | °C
As of 6:35 AM on Friday 24 Oct 2014 (Local Time) from KHYS Reporting Station
Clear Clear  
Wind Chill: 55°   Ceiling: Unl
Heat Index: 55°   Visibility: 3mi
Dew Point: 48°   Wind: 7mph
Humidity: 77%   Direction: 210°SSW
Pressure: 30.01"   Gusts: NA
Location:  39.2151°N, 99.302°W
Report Text: KHYS 241135Z AUTO 21006KT 3SM CLR 13/09 A3001 RMK AO1
Loading
Personal Weather Stations






























Interactive Weather Map
Tropical Storm Tracking
New forecast layout! Learn more

10-Day Weather Forecast

Advertisements
Track Severe Weather on mobile